Startpagina
METAR-TAF:

METAR-TAF

Vliegvelden :

Luchthaven Herat

Herat, Afghanistan

breedte: 34-13N, lengte: 062-13E, hoogte: 964 m

Actueel weer

Dit bericht is 1 uur en het 34 minuten geleden gemaakt, om 16:55 UTC
Wind 5 kt uit het zuidoosten
Temperatuur 11°C
Vochtigheid 58%
Druk 1022 hPa
Zicht 10 km of meer
geen wolken onder 1500 m en geen cumulonimbus

METAR: OAHR 181655Z 13005KT CAVOK 11/03 Q1022 RMK A3020 BLU

Tijdstip: 22:59 (18:29 UTC)

Verwachting

Dit bericht is 1 uur en het 29 minuten geleden gemaakt, om 17:00 UTC
Verwachting geldig van 18 om 18 UTC tot 19 om 18 UTC
Wind 7 kt uit het zuidzuidwesten
Zicht 10 km of meer
geen wolken onder 1500 m en geen cumulonimbus
Wijzigt naar
van 19 om 07 UTC tot 19 om 09 UTC
Wind 9 kt uit het westnoordwesten
Wijzigt naar
van 19 om 14 UTC tot 19 om 16 UTC
Wind 7 kt uit het zuidzuidwesten

TAF: OAHR 181700Z 1818/1918 20007KT CAVOK BECMG 1907/1909 29009KT BECMG 1914/1916 20007KT

Waarnemingen en weersverwachtingen van meer dan 4000 vliegvelden (METAR en TAF).

De beschikbare stations zijn de gele en rode punten op de kaart.

Ga met uw muis naar het station om de naam te zien.

Klik dan om waarnemingen en weersverwachtingen te zien.

kaart wijzigen: klik op de groene knoppen met een zwart kruis om in te zoomen, op de groene knop met een streepje om uit te zoomen of op de groene pijlen voor aangrenzende kaarten.


METAR-TAF: